createdAt,value
2023-04-28T00:00:11.890Z,98252.72
2023-04-28T00:03:00.060Z,98251.03
2023-04-28T00:05:49.538Z,98252.19
2023-04-28T00:08:37.670Z,98245.34
2023-04-28T00:11:25.469Z,98232.09
2023-04-28T00:14:15.253Z,98236.56
2023-04-28T00:17:03.489Z,98231.41
2023-04-28T00:19:53.039Z,98228.09
2023-04-28T00:22:40.935Z,98228.09
2023-04-28T00:25:32.024Z,98224.59
2023-04-28T00:28:32.803Z,98222.09
2023-04-28T00:31:23.468Z,98214.13
2023-04-28T00:34:14.305Z,98205.50
2023-04-28T00:37:05.332Z,98204.81
2023-04-28T00:39:56.722Z,98208.44
2023-04-28T00:42:44.472Z,98205.13
2023-04-28T00:45:32.971Z,98201.75
2023-04-28T00:48:22.501Z,98201.91
2023-04-28T00:51:10.327Z,98201.09
2023-04-28T00:53:58.762Z,98195.09
2023-04-28T00:56:46.452Z,98197.59
2023-04-28T00:59:34.580Z,98191.47
2023-04-28T01:02:22.493Z,98184.50
2023-04-28T01:05:14.808Z,98181.84
2023-04-28T01:08:03.019Z,98172.25
2023-04-28T01:10:51.074Z,98168.59
2023-04-28T01:13:38.694Z,98167.25
2023-04-28T01:16:27.402Z,98172.53
2023-04-28T01:19:21.568Z,98166.53
2023-04-28T01:22:11.469Z,98171.56
2023-04-28T01:25:00.451Z,98158.31
2023-04-28T01:27:47.960Z,98168.06
2023-04-28T01:30:36.547Z,98161.94
2023-04-28T01:33:25.533Z,98163.59
2023-04-28T01:36:13.182Z,98154.81
2023-04-28T01:39:01.098Z,98162.91
2023-04-28T01:41:50.258Z,98165.56
2023-04-28T01:44:37.996Z,98156.78
2023-04-28T01:47:25.813Z,98147.00
2023-04-28T01:50:13.670Z,98143.69
2023-04-28T01:53:01.723Z,98137.41
2023-04-28T01:55:49.580Z,98142.72
2023-04-28T01:58:38.949Z,98145.34
2023-04-28T02:01:32.810Z,98154.97
2023-04-28T02:04:20.741Z,98149.13
2023-04-28T02:07:08.562Z,98149.28
2023-04-28T02:09:57.416Z,98140.50
2023-04-28T02:12:45.267Z,98133.69
2023-04-28T02:15:35.355Z,98132.16
2023-04-28T02:18:23.262Z,98140.25
2023-04-28T02:21:12.286Z,98148.19
2023-04-28T02:24:00.369Z,98138.84
2023-04-28T02:26:48.330Z,98135.25
2023-04-28T02:29:36.162Z,98134.13
2023-04-28T02:32:25.471Z,98129.66
2023-04-28T02:35:13.518Z,98130.19
2023-04-28T02:38:01.215Z,98140.63
2023-04-28T02:40:49.125Z,98141.63
2023-04-28T02:43:38.069Z,98138.00
2023-04-28T02:46:32.312Z,98128.69
2023-04-28T02:49:21.480Z,98137.69
2023-04-28T02:52:09.345Z,98136.84
2023-04-28T02:54:57.749Z,98129.59
2023-04-28T02:57:45.386Z,98123.75
2023-04-28T03:00:33.275Z,98122.81
2023-04-28T03:03:21.498Z,98123.47
2023-04-28T03:06:10.808Z,98119.84
2023-04-28T03:08:58.622Z,98108.69
2023-04-28T03:11:46.566Z,98115.19
2023-04-28T03:14:34.512Z,98099.44
2023-04-28T03:17:22.525Z,98089.09
2023-04-28T03:20:11.560Z,98086.56
2023-04-28T03:23:01.996Z,98076.97
2023-04-28T03:25:49.900Z,98080.69
2023-04-28T03:28:38.036Z,98081.53
2023-04-28T03:31:38.323Z,98075.94
2023-04-28T03:34:26.306Z,98088.03
2023-04-28T03:37:14.142Z,98074.50
2023-04-28T03:40:03.512Z,98069.91
2023-04-28T03:42:51.281Z,98075.84
2023-04-28T03:45:39.409Z,98070.56
2023-04-28T03:48:27.177Z,98069.59
2023-04-28T03:51:15.350Z,98065.66
2023-04-28T03:54:03.247Z,98062.41
2023-04-28T03:56:52.450Z,98064.91
2023-04-28T03:59:40.744Z,98061.25
2023-04-28T04:02:28.620Z,98063.47
2023-04-28T04:05:16.495Z,98066.19
2023-04-28T04:08:05.919Z,98049.00
2023-04-28T04:10:54.949Z,98042.34
2023-04-28T04:13:44.625Z,98035.06
2023-04-28T04:16:41.854Z,98046.03
2023-04-28T04:19:29.730Z,98051.84
2023-04-28T04:22:17.614Z,98056.03
2023-04-28T04:25:07.160Z,98051.41
2023-04-28T04:27:54.851Z,98055.75
2023-04-28T04:30:44.931Z,98051.09
2023-04-28T04:33:33.073Z,98045.13
2023-04-28T04:36:21.118Z,98050.13
2023-04-28T04:39:09.599Z,98048.81
2023-04-28T04:41:57.748Z,98047.84
2023-04-28T04:44:45.779Z,98044.19
2023-04-28T04:47:35.263Z,98040.19
2023-04-28T04:50:23.081Z,98048.69
2023-04-28T04:53:14.657Z,98044.03
2023-04-28T04:56:04.123Z,98045.56
2023-04-28T04:58:54.573Z,98043.88
2023-04-28T05:01:43.580Z,98050.88
2023-04-28T05:04:32.878Z,98059.19
2023-04-28T05:07:20.541Z,98066.47
2023-04-28T05:10:11.529Z,98056.53
2023-04-28T05:12:59.427Z,98068.53
2023-04-28T05:15:47.592Z,98067.53
2023-04-28T05:18:35.900Z,98066.91
2023-04-28T05:21:50.286Z,98058.94
2023-04-28T05:24:39.741Z,98079.47
2023-04-28T05:27:27.626Z,98062.09
2023-04-28T05:30:15.824Z,98068.47
2023-04-28T05:33:03.700Z,98066.28
2023-04-28T05:35:51.777Z,98060.53
2023-04-28T05:38:41.314Z,98063.38
2023-04-28T05:44:35.631Z,98062.28
2023-04-28T05:47:23.606Z,98048.28
2023-04-28T05:50:12.131Z,98047.53
2023-04-28T05:52:59.861Z,98061.84
2023-04-28T05:55:49.249Z,98056.06
2023-04-28T05:58:36.995Z,98056.59
2023-04-28T06:01:25.069Z,98058.06
2023-04-28T06:04:12.932Z,98045.34
2023-04-28T06:07:01.182Z,98055.06
2023-04-28T06:09:49.596Z,98051.75
2023-04-28T06:12:38.616Z,98051.41
2023-04-28T06:15:26.521Z,98055.75
2023-04-28T06:18:16.123Z,98053.13
2023-04-28T06:21:03.828Z,98054.47
2023-04-28T06:23:51.985Z,98058.97
2023-04-28T06:26:39.889Z,98059.50
2023-04-28T06:29:29.085Z,98057.22
2023-04-28T06:32:16.874Z,98056.91
2023-04-28T06:35:05.241Z,98057.41
2023-04-28T06:37:52.969Z,98045.63
2023-04-28T06:40:41.120Z,98045.28
2023-04-28T06:43:28.980Z,98038.81
2023-04-28T06:46:18.601Z,98046.31
2023-04-28T06:49:06.752Z,98042.47
2023-04-28T06:51:54.684Z,98035.66
2023-04-28T06:54:45.504Z,98031.19
2023-04-28T06:57:33.217Z,98027.38
2023-04-28T07:00:21.364Z,98035.66
2023-04-28T07:03:10.964Z,98033.38
2023-04-28T07:06:00.133Z,98039.00
2023-04-28T07:08:48.403Z,98048.31
2023-04-28T07:11:36.167Z,98053.28
2023-04-28T07:14:23.881Z,98043.66
2023-04-28T07:17:13.070Z,98048.31
2023-04-28T07:20:02.398Z,98041.34
2023-04-28T07:22:50.028Z,98037.69
2023-04-28T07:25:38.313Z,98035.38
2023-04-28T07:28:26.060Z,98027.22
2023-04-28T07:31:14.166Z,98044.31
2023-04-28T07:34:04.217Z,98057.47
2023-04-28T07:36:53.499Z,98056.94
2023-04-28T07:39:41.784Z,98057.25
2023-04-28T07:42:29.656Z,98066.41
2023-04-28T07:45:17.778Z,98074.84
2023-04-28T07:48:06.186Z,98075.28
2023-04-28T07:50:54.169Z,98076.78
2023-04-28T07:53:43.720Z,98088.75
2023-04-28T07:56:32.214Z,98097.72
2023-04-28T07:59:20.462Z,98094.59
2023-04-28T08:02:08.491Z,98097.75
2023-04-28T08:04:56.451Z,98092.97
2023-04-28T08:07:44.858Z,98082.19
2023-04-28T08:10:34.571Z,98072.56
2023-04-28T08:13:22.786Z,98077.56
2023-04-28T08:16:10.841Z,98076.88
2023-04-28T08:18:59.767Z,98065.75
2023-04-28T08:21:48.094Z,98072.56
2023-04-28T08:24:36.092Z,98078.56
2023-04-28T08:27:25.809Z,98064.91
2023-04-28T08:30:16.778Z,98067.75
2023-04-28T08:33:06.213Z,98054.97
2023-04-28T08:35:56.190Z,98047.31
2023-04-28T08:38:45.489Z,98036.69
2023-04-28T08:41:34.962Z,98027.38
2023-04-28T08:44:24.554Z,98025.56
2023-04-28T08:47:14.659Z,98024.72
2023-04-28T08:50:06.052Z,98040.81
2023-04-28T08:52:55.630Z,98034.03
2023-04-28T08:55:43.829Z,98037.69
2023-04-28T08:58:32.082Z,98049.47
2023-04-28T09:01:21.440Z,98047.97
2023-04-28T09:04:12.659Z,98065.59
2023-04-28T09:07:02.226Z,98062.44
2023-04-28T09:09:49.817Z,98061.63
2023-04-28T09:12:38.730Z,98052.19
2023-04-28T09:15:33.894Z,98056.16
2023-04-28T09:18:23.458Z,98046.00
2023-04-28T09:21:13.334Z,98043.00
2023-04-28T09:24:00.952Z,98039.72
2023-04-28T09:26:53.507Z,98037.34
2023-04-28T09:29:54.527Z,98044.88
2023-04-28T09:32:42.849Z,98042.88
2023-04-28T09:35:42.827Z,98053.00
2023-04-28T09:38:30.593Z,98053.00
2023-04-28T09:41:18.637Z,98046.38
2023-04-28T09:44:15.320Z,98037.69
2023-04-28T09:47:20.974Z,98017.09
2023-04-28T09:50:12.521Z,98021.41
2023-04-28T09:53:04.152Z,98037.88
2023-04-28T09:55:53.883Z,98029.03
2023-04-28T09:58:44.422Z,98023.53
2023-04-28T10:01:37.949Z,98009.06
2023-04-28T10:04:27.127Z,98000.41
2023-04-28T10:07:16.631Z,98004.34
2023-04-28T10:10:08.046Z,98005.34
2023-04-28T10:12:56.874Z,98000.22
2023-04-28T10:15:46.150Z,97989.03
2023-04-28T10:18:36.395Z,97986.69
2023-04-28T10:21:26.205Z,97998.13
2023-04-28T10:24:25.723Z,98014.06
2023-04-28T10:27:16.054Z,98012.31
2023-04-28T10:30:26.264Z,98000.28
2023-04-28T10:33:28.981Z,98002.78
2023-04-28T10:36:52.333Z,97998.50
2023-04-28T10:39:40.133Z,97999.34
2023-04-28T10:42:53.903Z,97995.00
2023-04-28T10:46:15.582Z,97990.31
2023-04-28T10:49:03.465Z,97999.84
2023-04-28T10:51:51.499Z,97990.31
2023-04-28T10:54:39.497Z,97984.22
2023-04-28T10:57:27.638Z,97990.75
2023-04-28T11:00:31.462Z,97991.84
2023-04-28T11:03:51.060Z,97986.28
2023-04-28T11:06:41.241Z,97984.63
2023-04-28T11:09:50.364Z,97986.81
2023-04-28T11:12:58.484Z,97992.88
2023-04-28T11:16:05.690Z,97999.81
2023-04-28T11:18:59.274Z,97989.13
2023-04-28T11:21:48.212Z,97984.22
2023-04-28T11:24:36.362Z,97984.94
2023-04-28T11:27:26.835Z,97982.63
2023-04-28T11:30:25.266Z,97980.78
2023-04-28T11:33:14.904Z,97979.44
2023-04-28T11:36:03.012Z,97979.09
2023-04-28T11:39:17.056Z,97976.09
2023-04-28T11:42:11.668Z,97967.22
2023-04-28T11:44:59.582Z,97971.56
2023-04-28T11:47:47.505Z,97970.38
2023-04-28T11:50:40.273Z,97971.09
2023-04-28T11:53:43.011Z,97969.72
2023-04-28T11:56:32.131Z,97972.22
2023-04-28T11:59:20.760Z,97973.47
2023-04-28T12:02:09.918Z,97969.81
2023-04-28T12:04:57.785Z,97960.56
2023-04-28T12:07:47.555Z,97961.63
2023-04-28T12:10:35.522Z,97953.97
2023-04-28T12:13:23.637Z,97953.22
2023-04-28T12:16:11.643Z,97957.06
2023-04-28T12:19:00.816Z,97954.53
2023-04-28T12:22:02.865Z,97950.13
2023-04-28T12:25:08.359Z,97954.06
2023-04-28T12:28:04.789Z,97948.34
2023-04-28T12:31:04.317Z,97938.22
2023-04-28T12:33:52.345Z,97946.59
2023-04-28T12:36:42.089Z,97942.25
2023-04-28T12:39:29.912Z,97948.59
2023-04-28T12:42:19.159Z,97945.31
2023-04-28T12:45:08.814Z,97938.63
2023-04-28T12:47:57.018Z,97937.25
2023-04-28T12:50:44.613Z,97919.50
2023-04-28T12:53:32.827Z,97922.50
2023-04-28T12:56:20.860Z,97923.78
2023-04-28T12:59:10.965Z,97928.75
2023-04-28T13:01:59.139Z,97943.50
2023-04-28T13:04:47.742Z,97932.50
2023-04-28T13:07:35.780Z,97930.97
2023-04-28T13:10:23.732Z,97909.16
2023-04-28T13:13:11.590Z,97892.50
2023-04-28T13:16:00.779Z,97905.13
2023-04-28T13:18:50.003Z,97903.88
2023-04-28T13:21:39.282Z,97900.84
2023-04-28T13:24:27.443Z,97891.19
2023-04-28T13:27:15.017Z,97887.28
2023-04-28T13:30:03.929Z,97895.75
2023-04-28T13:32:54.495Z,97891.22
2023-04-28T13:35:44.333Z,97877.59
2023-04-28T13:38:32.292Z,97879.06
2023-04-28T13:41:21.225Z,97881.72
2023-04-28T13:44:09.481Z,97885.06
2023-04-28T13:46:58.062Z,97868.53
2023-04-28T13:49:47.860Z,97864.38
2023-04-28T13:52:36.338Z,97858.19
2023-04-28T13:55:27.818Z,97858.38
2023-04-28T13:58:15.959Z,97848.66
2023-04-28T14:01:04.808Z,97847.44
2023-04-28T14:03:54.413Z,97853.19
2023-04-28T14:06:43.931Z,97848.41
2023-04-28T14:09:32.575Z,97858.91
2023-04-28T14:12:20.589Z,97849.00
2023-04-28T14:15:09.542Z,97848.38
2023-04-28T14:17:57.782Z,97846.25
2023-04-28T14:20:45.824Z,97839.00
2023-04-28T14:23:35.472Z,97848.53
2023-04-28T14:26:24.057Z,97851.59
2023-04-28T14:29:11.802Z,97836.91
2023-04-28T14:31:59.889Z,97852.44
2023-04-28T14:34:48.359Z,97838.97
2023-04-28T14:37:36.340Z,97828.38
2023-04-28T14:40:25.898Z,97832.28
2023-04-28T14:43:14.783Z,97828.13
2023-04-28T14:46:02.873Z,97830.78
2023-04-28T14:48:51.438Z,97830.13
2023-04-28T14:51:39.632Z,97819.97
2023-04-28T14:54:27.727Z,97816.25
2023-04-28T14:57:17.281Z,97825.53
2023-04-28T15:00:07.943Z,97816.84
2023-04-28T15:02:56.289Z,97813.56
2023-04-28T15:05:44.297Z,97813.16
2023-04-28T15:08:33.314Z,97803.66
2023-04-28T15:11:21.407Z,97802.44
2023-04-28T15:14:10.616Z,97796.66
2023-04-28T15:16:59.346Z,97795.22
2023-04-28T15:19:47.675Z,97804.56
2023-04-28T15:22:36.339Z,97814.69
2023-04-28T15:25:24.254Z,97808.31
2023-04-28T15:28:12.071Z,97817.44
2023-04-28T15:31:01.731Z,97820.13
2023-04-28T15:33:49.721Z,97828.19
2023-04-28T15:36:42.732Z,97822.81
2023-04-28T15:39:30.843Z,97824.47
2023-04-28T15:42:18.863Z,97826.09
2023-04-28T15:45:10.354Z,97821.56
2023-04-28T15:47:59.523Z,97824.25
2023-04-28T15:50:47.797Z,97836.88
2023-04-28T15:53:36.102Z,97842.66
2023-04-28T15:56:24.054Z,97832.81
2023-04-28T15:59:14.922Z,97831.34
2023-04-28T16:02:03.096Z,97830.13
2023-04-28T16:04:52.872Z,97831.59
2023-04-28T16:07:41.735Z,97831.19
2023-04-28T16:10:29.657Z,97831.63
2023-04-28T16:13:17.534Z,97826.91
2023-04-28T16:16:06.840Z,97821.75
2023-04-28T16:18:55.952Z,97815.72
2023-04-28T16:21:45.218Z,97817.59
2023-04-28T16:24:33.113Z,97812.22
2023-04-28T16:27:21.406Z,97816.78
2023-04-28T16:30:10.486Z,97807.25
2023-04-28T16:32:58.627Z,97820.09
2023-04-28T16:35:54.226Z,97814.31
2023-04-28T16:38:45.619Z,97807.69
2023-04-28T16:41:34.130Z,97808.53
2023-04-28T16:44:22.159Z,97815.16
2023-04-28T16:47:10.373Z,97805.63
2023-04-28T16:49:58.403Z,97809.34
2023-04-28T16:52:46.452Z,97803.13
2023-04-28T16:55:37.409Z,97809.13
2023-04-28T16:58:25.077Z,97796.50
2023-04-28T17:01:13.182Z,97798.59
2023-04-28T17:04:02.879Z,97794.06
2023-04-28T17:06:50.845Z,97780.22
2023-04-28T17:09:38.617Z,97786.19
2023-04-28T17:12:28.041Z,97791.56
2023-04-28T17:15:17.172Z,97799.03
2023-04-28T17:18:05.474Z,97794.44
2023-04-28T17:20:53.625Z,97794.50
2023-04-28T17:23:41.892Z,97793.66
2023-04-28T17:26:31.031Z,97798.22
2023-04-28T17:29:21.715Z,97802.97
2023-04-28T17:32:09.339Z,97787.44
2023-04-28T17:34:57.258Z,97794.28
2023-04-28T17:37:45.429Z,97794.97
2023-04-28T17:40:33.117Z,97791.69
2023-04-28T17:43:21.726Z,97779.91
2023-04-28T17:46:12.292Z,97782.19
2023-04-28T17:49:00.497Z,97788.34
2023-04-28T17:51:48.228Z,97782.97
2023-04-28T17:54:36.322Z,97773.50
2023-04-28T17:57:30.270Z,97772.91
2023-04-28T18:00:18.216Z,97778.25
2023-04-28T18:03:07.774Z,97777.66
2023-04-28T18:05:55.537Z,97783.03
2023-04-28T18:08:43.566Z,97785.53
2023-04-28T18:11:31.667Z,97775.41
2023-04-28T18:14:19.717Z,97782.63
2023-04-28T18:17:07.902Z,97798.72
2023-04-28T18:19:58.095Z,97803.47
2023-04-28T18:22:45.793Z,97796.41
2023-04-28T18:25:33.777Z,97801.13
2023-04-28T18:28:21.194Z,97810.41
2023-04-28T18:31:09.470Z,97816.78
2023-04-28T18:33:57.496Z,97818.81
2023-04-28T18:36:46.757Z,97817.56
2023-04-28T18:39:34.792Z,97822.25
2023-04-28T18:42:23.295Z,97817.06
2023-04-28T18:47:59.733Z,97834.72
2023-04-28T18:50:48.536Z,97846.63
2023-04-28T18:53:38.999Z,97831.13
2023-04-28T18:56:27.043Z,97846.69
2023-04-28T18:59:15.123Z,97850.53
2023-04-28T19:02:04.041Z,97852.75
2023-04-28T19:04:53.019Z,97848.75
2023-04-28T19:07:41.463Z,97849.06
2023-04-28T19:10:31.011Z,97853.13
2023-04-28T19:13:19.126Z,97851.78
2023-04-28T19:16:07.434Z,97871.66
2023-04-28T19:18:55.126Z,97875.84
2023-04-28T19:21:44.723Z,97874.69
2023-04-28T19:24:33.620Z,97889.44
2023-04-28T19:27:22.998Z,97900.72
2023-04-28T19:30:12.946Z,97894.06
2023-04-28T19:33:00.721Z,97896.47
2023-04-28T19:35:48.352Z,97900.06
2023-04-28T19:38:40.196Z,97899.97
2023-04-28T19:41:28.009Z,97890.44
2023-04-28T19:44:17.317Z,97893.00
2023-04-28T19:47:07.243Z,97903.75
2023-04-28T19:49:55.660Z,97907.38
2023-04-28T19:52:43.454Z,97902.94
2023-04-28T19:55:31.918Z,97900.16
2023-04-28T19:58:19.601Z,97911.38
2023-04-28T20:01:09.299Z,97920.28
2023-04-28T20:03:57.242Z,97939.72
2023-04-28T20:06:45.412Z,97940.06
2023-04-28T20:09:34.899Z,97962.69
2023-04-28T20:12:23.093Z,97975.00
2023-04-28T20:15:11.597Z,97979.03
2023-04-28T20:18:01.098Z,97964.22
2023-04-28T20:20:48.836Z,97959.25
2023-04-28T20:23:37.789Z,97962.72
2023-04-28T20:26:25.744Z,97952.78
2023-04-28T20:29:13.726Z,97952.13
2023-04-28T20:32:02.345Z,97958.81
2023-04-28T20:34:51.990Z,97955.19
2023-04-28T20:37:40.106Z,97961.22
2023-04-28T20:40:28.518Z,97942.38
2023-04-28T20:43:16.379Z,97948.22
2023-04-28T20:46:04.128Z,97956.97
2023-04-28T20:48:52.061Z,97947.97
2023-04-28T20:51:45.224Z,97963.16
2023-04-28T20:54:33.600Z,97965.03
2023-04-28T20:57:21.509Z,97960.84
2023-04-28T21:00:10.571Z,97965.53
2023-04-28T21:03:01.125Z,97969.41
2023-04-28T21:05:48.844Z,97980.22
2023-04-28T21:08:38.597Z,97978.09
2023-04-28T21:11:27.055Z,97978.72
2023-04-28T21:14:15.269Z,97979.44
2023-04-28T21:17:03.812Z,97979.22
2023-04-28T21:19:52.138Z,97981.03
2023-04-28T21:22:40.433Z,97972.41
2023-04-28T21:25:29.818Z,97964.91
2023-04-28T21:28:18.346Z,97965.38
2023-04-28T21:31:06.949Z,97952.81
2023-04-28T21:33:55.192Z,97947.94
2023-04-28T21:36:43.053Z,97953.56
2023-04-28T21:39:30.979Z,97949.44
2023-04-28T21:42:20.241Z,97959.38
2023-04-28T21:45:09.816Z,97963.41
2023-04-28T21:48:00.110Z,97968.91
2023-04-28T21:50:48.346Z,97964.09
2023-04-28T21:53:36.290Z,97955.91
2023-04-28T21:56:24.109Z,97961.59
2023-04-28T21:59:13.477Z,97954.13
2023-04-28T22:02:01.376Z,97948.78
2023-04-28T22:04:49.368Z,97937.97
2023-04-28T22:07:37.076Z,97928.84
2023-04-28T22:10:24.828Z,97935.47
2023-04-28T22:13:13.000Z,97940.00
2023-04-28T22:16:02.861Z,97941.50
2023-04-28T22:18:50.879Z,97940.84
2023-04-28T22:21:38.852Z,97940.88
2023-04-28T22:24:27.746Z,97944.84
2023-04-28T22:27:16.136Z,97939.41
2023-04-28T22:30:03.746Z,97925.88
2023-04-28T22:32:53.280Z,97932.56
2023-04-28T22:35:41.349Z,97955.50
2023-04-28T22:38:29.236Z,97961.50
2023-04-28T22:41:17.236Z,97961.41
2023-04-28T22:44:05.232Z,97948.59
2023-04-28T22:46:53.305Z,97941.25
2023-04-28T22:49:42.537Z,97925.28
2023-04-28T22:52:30.330Z,97916.66
2023-04-28T22:55:19.412Z,97902.84
2023-04-28T22:58:07.208Z,97910.16
2023-04-28T23:00:55.205Z,97901.22
2023-04-28T23:03:43.505Z,97893.75
2023-04-28T23:06:32.974Z,97896.09
2023-04-28T23:09:24.614Z,97903.09
2023-04-28T23:12:16.314Z,97895.78
2023-04-28T23:15:04.550Z,97900.06
2023-04-28T23:17:52.674Z,97899.75
2023-04-28T23:20:40.333Z,97898.78
2023-04-28T23:23:30.073Z,97907.09
2023-04-28T23:26:17.822Z,97904.06
2023-04-28T23:29:05.586Z,97906.41
2023-04-28T23:31:54.832Z,97903.25
2023-04-28T23:34:42.842Z,97898.44
2023-04-28T23:37:30.906Z,97904.38
2023-04-28T23:40:20.345Z,97906.38
2023-04-28T23:43:08.124Z,97910.19
2023-04-28T23:45:56.259Z,97906.22
2023-04-28T23:48:44.395Z,97897.41
2023-04-28T23:51:32.952Z,97898.91
2023-04-28T23:54:20.882Z,97901.03
2023-04-28T23:57:10.261Z,97891.75
2023-04-28T23:59:58.083Z,97893.56
